Time;durP1;ratioP1;P1;durP2;ratioP2;P2;SDS_P1;SDS_P2;PMS_P1;PMS_P2;Temp;Humidity;BMP_temperature;BMP_pressure;BME280_temperature;BME280_humidity;BME280_pressure;Samples;Min_cycle;Max_cycle;Signal;HPM_P1;HPM_P2
2022/10/25 00:02:22;;;;;;;32.08;16.25;;;;;;;;;;5083996;28;20375;-83
2022/10/25 00:05:14;;;;;;;34.55;16.40;;;;;;;;;;5076846;28;20040;-82
2022/10/25 00:08:00;;;;;;;38.97;16.25;;;;;;;;;;5083699;28;20048;-83
2022/10/25 00:10:47;;;;;;;34.20;15.63;;;;;;;;;;5076479;28;20471;-81
2022/10/25 00:13:33;;;;;;;36.72;15.57;;;;;;;;;;5080171;28;20037;-83
2022/10/25 00:16:22;;;;;;;42.67;17.33;;;;;;;;;;5078134;28;20037;-81
2022/10/25 00:19:10;;;;;;;44.55;18.42;;;;;;;;;;5085797;28;20036;-82
2022/10/25 00:21:57;;;;;;;31.15;15.50;;;;;;;;;;5082335;28;20044;-80
2022/10/25 00:24:42;;;;;;;34.92;16.60;;;;;;;;;;5087265;28;20045;-80
2022/10/25 00:27:29;;;;;;;51.63;14.90;;;;;;;;;;5076920;28;20041;-80
2022/10/25 00:30:14;;;;;;;51.08;20.10;;;;;;;;;;5083429;28;20040;-80
2022/10/25 00:33:00;;;;;;;46.80;21.77;;;;;;;;;;5081828;28;20045;-82
2022/10/25 00:36:13;;;;;;;44.90;21.23;;;;;;;;;;5075998;28;20044;-82
2022/10/25 00:39:00;;;;;;;50.97;21.45;;;;;;;;;;5075504;28;20036;-81
2022/10/25 00:41:46;;;;;;;44.40;22.40;;;;;;;;;;5083566;28;20045;-82
2022/10/25 00:44:34;;;;;;;41.75;22.70;;;;;;;;;;5076430;28;20049;-82
2022/10/25 00:47:20;;;;;;;43.65;23.42;;;;;;;;;;5075739;28;20040;-82
2022/10/25 00:50:21;;;;;;;49.53;22.00;;;;;;;;;;5076168;28;20040;-82
2022/10/25 00:53:12;;;;;;;44.42;23.20;;;;;;;;;;5061276;28;20060;-81
2022/10/25 00:56:15;;;;;;;48.80;22.23;;;;;;;;;;5055612;28;20388;-82
2022/10/25 00:59:08;;;;;;;42.13;21.38;;;;;;;;;;5063059;28;20041;-82
2022/10/25 01:01:55;;;;;;;40.95;19.48;;;;;;;;;;5072016;28;20041;-81
2022/10/25 01:04:42;;;;;;;38.58;19.95;;;;;;;;;;5072714;28;20040;-81
2022/10/25 01:07:27;;;;;;;36.90;18.60;;;;;;;;;;5073218;28;20044;-81
2022/10/25 01:10:12;;;;;;;40.58;18.27;;;;;;;;;;5069282;28;20049;-82
2022/10/25 01:13:00;;;;;;;39.38;15.30;;;;;;;;;;5075406;28;20044;-82
2022/10/25 01:16:22;;;;;;;33.15;15.85;;;;;;;;;;5071931;28;20382;-82
2022/10/25 01:19:34;;;;;;;37.28;14.15;;;;;;;;;;5059728;28;20383;-81
2022/10/25 01:22:36;;;;;;;31.88;13.65;;;;;;;;;;5075011;28;20032;-83
2022/10/25 01:25:32;;;;;;;33.75;16.33;;;;;;;;;;5082318;28;20387;-81
2022/10/25 01:28:44;;;;;;;43.53;17.08;;;;;;;;;;5075172;28;20470;-83
2022/10/25 01:31:36;;;;;;;38.08;17.23;;;;;;;;;;5061790;28;20048;-82
2022/10/25 01:34:32;;;;;;;46.03;17.65;;;;;;;;;;5073575;28;20471;-83
2022/10/25 01:37:29;;;;;;;52.38;23.35;;;;;;;;;;5055868;28;20048;-82
2022/10/25 01:40:21;;;;;;;55.90;24.52;;;;;;;;;;5060199;28;20048;-82
2022/10/25 01:43:19;;;;;;;50.10;23.35;;;;;;;;;;5073262;28;20033;-82
2022/10/25 01:46:24;;;;;;;53.40;27.10;;;;;;;;;;5054556;28;20036;-82
2022/10/25 01:49:23;;;;;;;53.47;27.10;;;;;;;;;;5059081;28;20388;-82
2022/10/25 01:52:08;;;;;;;55.08;26.48;;;;;;;;;;5053300;28;20033;-81
2022/10/25 01:54:54;;;;;;;50.15;25.20;;;;;;;;;;5061409;28;20041;-82
2022/10/25 01:58:12;;;;;;;44.78;22.33;;;;;;;;;;5060852;28;20036;-82
2022/10/25 02:01:15;;;;;;;39.70;18.27;;;;;;;;;;5060562;28;20048;-82
2022/10/25 02:04:12;;;;;;;30.73;14.95;;;;;;;;;;5053829;28;20029;-82
2022/10/25 02:07:37;;;;;;;32.47;14.57;;;;;;;;;;5061720;28;20041;-82
2022/10/25 02:10:31;;;;;;;40.20;14.32;;;;;;;;;;5054285;28;20033;-83
2022/10/25 02:13:48;;;;;;;27.38;14.95;;;;;;;;;;5061439;28;20045;-84
2022/10/25 02:16:49;;;;;;;33.53;15.13;;;;;;;;;;5054572;28;20037;-81
2022/10/25 02:19:46;;;;;;;40.45;16.98;;;;;;;;;;5074388;28;20036;-82
2022/10/25 02:22:33;;;;;;;36.25;16.05;;;;;;;;;;5054496;28;20472;-82
2022/10/25 02:25:20;;;;;;;40.80;18.27;;;;;;;;;;5053766;28;20033;-83
2022/10/25 02:28:10;;;;;;;42.63;21.15;;;;;;;;;;5059502;28;20040;-82
2022/10/25 02:30:57;;;;;;;42.75;23.20;;;;;;;;;;5054540;28;20044;-82
2022/10/25 02:33:46;;;;;;;57.22;24.77;;;;;;;;;;5054463;28;20468;-82
2022/10/25 02:36:33;;;;;;;42.53;23.55;;;;;;;;;;5054235;28;20076;-81
2022/10/25 02:39:21;;;;;;;46.17;23.88;;;;;;;;;;5059730;28;20476;-82
2022/10/25 02:42:07;;;;;;;45.17;23.98;;;;;;;;;;5054342;28;20037;-84
2022/10/25 02:44:52;;;;;;;50.80;23.85;;;;;;;;;;5053472;28;20387;-83
2022/10/25 02:47:39;;;;;;;51.45;23.83;;;;;;;;;;5059649;28;20041;-82
2022/10/25 02:50:25;;;;;;;45.97;22.77;;;;;;;;;;5056820;28;20040;-83
2022/10/25 02:53:11;;;;;;;49.13;23.42;;;;;;;;;;5053461;28;20049;-83
2022/10/25 02:56:15;;;;;;;43.58;22.63;;;;;;;;;;5053925;28;20037;-84
2022/10/25 02:59:01;;;;;;;52.95;19.90;;;;;;;;;;5054428;28;20048;-82
2022/10/25 03:01:47;;;;;;;41.70;19.98;;;;;;;;;;5056144;28;20045;-83
2022/10/25 03:04:34;;;;;;;34.72;19.13;;;;;;;;;;5064368;28;20468;-81
2022/10/25 03:07:20;;;;;;;33.40;16.92;;;;;;;;;;5065749;28;20045;-83
2022/10/25 03:10:06;;;;;;;41.15;18.10;;;;;;;;;;5052835;28;20388;-83
2022/10/25 03:12:52;;;;;;;35.20;18.60;;;;;;;;;;5057561;28;20383;-83
2022/10/25 03:15:37;;;;;;;40.03;18.90;;;;;;;;;;5053680;28;20045;-83
2022/10/25 03:18:23;;;;;;;37.63;17.92;;;;;;;;;;5054077;28;20037;-83
2022/10/25 03:21:09;;;;;;;37.15;18.08;;;;;;;;;;5053048;28;20037;-84
2022/10/25 03:23:55;;;;;;;32.95;18.25;;;;;;;;;;5054179;28;20045;-83
2022/10/25 03:26:42;;;;;;;40.70;19.25;;;;;;;;;;5054056;28;20045;-83
2022/10/25 03:29:28;;;;;;;37.28;18.15;;;;;;;;;;5060714;28;20045;-83
2022/10/25 03:32:14;;;;;;;38.03;19.73;;;;;;;;;;5060533;28;20053;-83
2022/10/25 03:35:00;;;;;;;48.30;22.30;;;;;;;;;;5053056;28;20379;-83
2022/10/25 03:37:47;;;;;;;46.30;23.85;;;;;;;;;;5053443;28;20407;-84
2022/10/25 03:40:33;;;;;;;61.38;28.45;;;;;;;;;;5059843;28;20041;-83
2022/10/25 03:43:20;;;;;;;63.45;30.88;;;;;;;;;;5053082;28;20033;-84
2022/10/25 03:46:06;;;;;;;62.83;28.00;;;;;;;;;;5053562;28;20468;-81
2022/10/25 03:48:52;;;;;;;57.10;26.52;;;;;;;;;;5052985;28;20040;-83
2022/10/25 03:51:38;;;;;;;53.85;25.80;;;;;;;;;;5052913;28;20045;-82
2022/10/25 03:54:24;;;;;;;51.05;24.60;;;;;;;;;;5053264;28;20049;-83
2022/10/25 03:57:11;;;;;;;49.72;25.60;;;;;;;;;;5056275;28;20044;-82
2022/10/25 03:59:58;;;;;;;67.53;31.40;;;;;;;;;;5053678;28;20375;-83
2022/10/25 04:02:45;;;;;;;69.18;30.80;;;;;;;;;;5053139;28;20037;-83
2022/10/25 04:05:31;;;;;;;64.82;30.35;;;;;;;;;;5059871;28;20048;-83
2022/10/25 04:08:17;;;;;;;57.03;28.63;;;;;;;;;;5053229;28;20037;-83
2022/10/25 04:11:03;;;;;;;50.83;27.92;;;;;;;;;;5060008;28;20452;-82
2022/10/25 04:13:49;;;;;;;60.30;28.70;;;;;;;;;;5059492;28;20037;-83
2022/10/25 04:16:35;;;;;;;65.10;33.00;;;;;;;;;;5056521;28;20058;-84
2022/10/25 04:19:21;;;;;;;52.78;27.13;;;;;;;;;;5056631;28;20041;-83
2022/10/25 04:22:07;;;;;;;63.95;30.88;;;;;;;;;;5056926;28;20373;-84
2022/10/25 04:24:52;;;;;;;61.72;28.40;;;;;;;;;;5063613;28;20040;-82
2022/10/25 04:27:39;;;;;;;57.28;26.65;;;;;;;;;;5057127;28;20041;-83
2022/10/25 04:30:25;;;;;;;58.58;28.60;;;;;;;;;;5063339;28;20060;-83
2022/10/25 04:33:11;;;;;;;79.93;36.63;;;;;;;;;;5078650;28;20047;-82
2022/10/25 04:35:58;;;;;;;70.88;32.35;;;;;;;;;;5075827;28;20052;-83
2022/10/25 04:38:46;;;;;;;66.55;33.90;;;;;;;;;;5071238;28;20032;-81
2022/10/25 04:41:32;;;;;;;71.00;32.72;;;;;;;;;;5079468;28;20045;-82
2022/10/25 04:44:18;;;;;;;68.70;33.85;;;;;;;;;;5075867;28;20048;-82
2022/10/25 04:47:05;;;;;;;66.03;33.63;;;;;;;;;;5077550;28;20053;-83
2022/10/25 04:49:50;;;;;;;57.15;27.85;;;;;;;;;;5060686;28;20045;-82
2022/10/25 04:52:36;;;;;;;54.35;29.05;;;;;;;;;;5056389;28;20384;-83
2022/10/25 04:55:22;;;;;;;63.15;27.17;;;;;;;;;;5055637;28;20033;-83
2022/10/25 04:58:07;;;;;;;56.08;27.77;;;;;;;;;;5055452;28;20519;-84
2022/10/25 05:00:57;;;;;;;45.08;24.92;;;;;;;;;;5057715;28;20037;-84
2022/10/25 05:03:42;;;;;;;54.20;26.25;;;;;;;;;;5056808;28;20054;-83
2022/10/25 05:06:28;;;;;;;48.75;25.58;;;;;;;;;;5062139;28;20049;-83
2022/10/25 05:09:13;;;;;;;47.28;24.90;;;;;;;;;;5057774;28;20048;-83
2022/10/25 05:11:58;;;;;;;55.45;24.90;;;;;;;;;;5076808;28;20052;-82
2022/10/25 05:14:45;;;;;;;53.92;23.42;;;;;;;;;;5083017;28;20045;-81
2022/10/25 05:17:31;;;;;;;49.40;21.60;;;;;;;;;;5075451;28;20036;-81
2022/10/25 05:20:18;;;;;;;47.33;21.70;;;;;;;;;;5080373;28;20043;-81
2022/10/25 05:23:03;;;;;;;50.00;23.17;;;;;;;;;;5096855;28;20039;-82
2022/10/25 05:26:01;;;;;;;54.40;23.05;;;;;;;;;;5102780;28;20044;-82
2022/10/25 05:28:48;;;;;;;44.83;22.05;;;;;;;;;;5094644;28;20028;-82
2022/10/25 05:31:36;;;;;;;59.92;23.23;;;;;;;;;;5101044;28;20032;-81
2022/10/25 05:34:22;;;;;;;43.90;22.38;;;;;;;;;;5102138;28;20044;-81
2022/10/25 05:37:07;;;;;;;44.75;22.55;;;;;;;;;;5101472;28;20040;-81
2022/10/25 05:39:54;;;;;;;51.00;22.63;;;;;;;;;;5101825;28;20383;-81
2022/10/25 05:42:40;;;;;;;51.90;21.60;;;;;;;;;;5096151;28;20036;-82
2022/10/25 05:45:26;;;;;;;45.38;21.40;;;;;;;;;;5098370;28;20467;-81
2022/10/25 05:48:15;;;;;;;55.05;22.77;;;;;;;;;;5109576;28;20382;-81
2022/10/25 05:51:24;;;;;;;67.15;33.03;;;;;;;;;;5096168;28;20044;-81
2022/10/25 05:54:13;;;;;;;52.65;27.02;;;;;;;;;;5095242;28;20496;-81
2022/10/25 05:57:00;;;;;;;62.10;26.80;;;;;;;;;;5102133;28;20040;-81
2022/10/25 05:59:46;;;;;;;45.58;21.92;;;;;;;;;;5102217;28;20047;-81
2022/10/25 06:02:34;;;;;;;50.88;23.90;;;;;;;;;;5100697;28;20040;-82
2022/10/25 06:05:20;;;;;;;53.33;22.45;;;;;;;;;;5095611;28;20044;-82
2022/10/25 06:08:07;;;;;;;39.38;21.80;;;;;;;;;;5106445;28;20040;-82
2022/10/25 06:10:52;;;;;;;44.20;20.95;;;;;;;;;;5102473;28;20044;-81
2022/10/25 06:13:39;;;;;;;42.78;22.50;;;;;;;;;;5102327;28;20421;-80
2022/10/25 06:16:25;;;;;;;44.58;20.17;;;;;;;;;;5095060;28;20040;-80
2022/10/25 06:19:10;;;;;;;45.90;21.15;;;;;;;;;;5083738;28;20044;-81
2022/10/25 06:21:56;;;;;;;44.28;22.55;;;;;;;;;;5087479;28;20379;-82
2022/10/25 06:24:41;;;;;;;46.95;21.60;;;;;;;;;;5054712;28;20460;-82
2022/10/25 06:27:27;;;;;;;47.42;23.13;;;;;;;;;;5061648;28;20052;-81
2022/10/25 06:30:12;;;;;;;43.75;22.65;;;;;;;;;;5061090;28;20048;-81
2022/10/25 06:32:58;;;;;;;51.28;23.90;;;;;;;;;;5061007;28;20044;-81
2022/10/25 06:35:43;;;;;;;56.75;24.38;;;;;;;;;;5060678;28;20041;-82
2022/10/25 06:38:29;;;;;;;54.17;23.75;;;;;;;;;;5053683;28;20491;-82
2022/10/25 06:41:20;;;;;;;49.42;24.40;;;;;;;;;;5060547;28;20041;-82
2022/10/25 06:44:06;;;;;;;55.20;24.90;;;;;;;;;;5060802;28;20041;-80
2022/10/25 06:46:51;;;;;;;47.13;23.65;;;;;;;;;;5060126;28;20460;-81
2022/10/25 06:49:36;;;;;;;44.65;23.00;;;;;;;;;;5057937;28;20045;-80
2022/10/25 06:52:21;;;;;;;65.88;22.75;;;;;;;;;;5057690;28;20041;-82
2022/10/25 06:55:07;;;;;;;47.17;21.75;;;;;;;;;;5053645;28;20041;-81
2022/10/25 06:57:55;;;;;;;53.08;21.02;;;;;;;;;;5053029;28;20499;-81
2022/10/25 07:00:41;;;;;;;54.80;25.20;;;;;;;;;;5060167;28;20041;-80
2022/10/25 07:03:33;;;;;;;50.78;22.73;;;;;;;;;;5060316;28;20049;-81
2022/10/25 07:06:25;;;;;;;43.03;19.40;;;;;;;;;;5053442;28;20074;-80
2022/10/25 07:09:12;;;;;;;43.58;20.13;;;;;;;;;;5053726;28;20395;-81
2022/10/25 07:11:58;;;;;;;37.85;19.63;;;;;;;;;;5059725;28;20049;-80
2022/10/25 07:14:44;;;;;;;42.65;18.25;;;;;;;;;;5060017;28;20045;-81
2022/10/25 07:17:29;;;;;;;52.42;21.98;;;;;;;;;;5069103;28;20041;-81
2022/10/25 07:20:15;;;;;;;40.60;20.75;;;;;;;;;;5080324;28;20463;-81
2022/10/25 07:23:00;;;;;;;40.40;19.33;;;;;;;;;;5079797;28;20375;-80
2022/10/25 07:25:46;;;;;;;43.08;17.88;;;;;;;;;;5080009;28;20036;-80
2022/10/25 07:28:33;;;;;;;40.78;18.08;;;;;;;;;;5080256;28;20036;-80
2022/10/25 07:31:29;;;;;;;38.53;20.48;;;;;;;;;;5080011;28;20048;-78
2022/10/25 07:34:16;;;;;;;46.28;21.90;;;;;;;;;;5080088;28;20375;-80
2022/10/25 07:37:02;;;;;;;56.47;23.60;;;;;;;;;;5083562;28;20049;-81
2022/10/25 07:39:49;;;;;;;50.38;22.20;;;;;;;;;;5080004;28;20472;-80
2022/10/25 07:42:35;;;;;;;41.22;21.23;;;;;;;;;;5079043;28;20475;-80
2022/10/25 07:45:20;;;;;;;43.78;20.02;;;;;;;;;;5079817;28;20044;-79
2022/10/25 07:48:06;;;;;;;41.10;20.77;;;;;;;;;;5077932;28;20044;-79
2022/10/25 07:50:51;;;;;;;44.90;20.58;;;;;;;;;;5075507;28;20045;-81
2022/10/25 07:53:38;;;;;;;43.53;20.80;;;;;;;;;;5076758;28;20036;-80
2022/10/25 07:56:24;;;;;;;43.67;23.00;;;;;;;;;;5084166;28;20041;-80
2022/10/25 07:59:10;;;;;;;48.75;21.30;;;;;;;;;;5083312;28;20048;-80
2022/10/25 08:01:57;;;;;;;44.03;19.38;;;;;;;;;;5083615;28;20478;-79
2022/10/25 08:04:43;;;;;;;46.88;18.85;;;;;;;;;;5083647;28;20375;-80
2022/10/25 08:07:30;;;;;;;37.47;18.88;;;;;;;;;;5081975;28;20048;-80
2022/10/25 08:10:19;;;;;;;44.03;18.05;;;;;;;;;;5076611;28;20460;-79
2022/10/25 08:13:05;;;;;;;42.47;17.67;;;;;;;;;;5076282;28;20044;-78
2022/10/25 08:15:52;;;;;;;38.60;17.45;;;;;;;;;;5083424;28;20045;-80
2022/10/25 08:18:38;;;;;;;45.22;19.00;;;;;;;;;;5076421;28;20036;-80
2022/10/25 08:21:24;;;;;;;43.17;18.33;;;;;;;;;;5080912;28;20460;-81
2022/10/25 08:24:09;;;;;;;38.50;17.67;;;;;;;;;;5077406;28;20044;-82
2022/10/25 08:26:56;;;;;;;48.08;18.65;;;;;;;;;;5086428;28;20379;-80
2022/10/25 08:29:42;;;;;;;43.10;18.00;;;;;;;;;;5089100;28;20040;-82
2022/10/25 08:32:30;;;;;;;43.65;19.70;;;;;;;;;;5089107;28;20456;-79
2022/10/25 08:35:16;;;;;;;48.17;19.88;;;;;;;;;;5089718;28;20040;-81
2022/10/25 08:38:03;;;;;;;45.00;18.70;;;;;;;;;;5081916;28;20037;-80
2022/10/25 08:41:17;;;;;;;29.38;14.13;;;;;;;;;;5081349;28;20036;-79
2022/10/25 08:44:25;;;;;;;32.20;13.88;;;;;;;;;;5081790;28;20048;-80
2022/10/25 08:47:37;;;;;;;31.30;10.52;;;;;;;;;;5089060;28;20048;-78
2022/10/25 08:50:37;;;;;;;25.35;12.05;;;;;;;;;;5080372;28;20367;-80
2022/10/25 08:53:39;;;;;;;31.63;13.43;;;;;;;;;;5081652;28;20040;-81
2022/10/25 08:56:26;;;;;;;42.95;14.88;;;;;;;;;;5075638;28;20395;-79
2022/10/25 08:59:16;;;;;;;31.83;14.02;;;;;;;;;;5082496;28;20044;-80
2022/10/25 09:02:10;;;;;;;40.33;14.82;;;;;;;;;;5083855;28;20041;-80
2022/10/25 09:04:55;;;;;;;28.67;13.10;;;;;;;;;;5080111;28;20044;-82
2022/10/25 09:07:47;;;;;;;30.67;11.18;;;;;;;;;;5076041;28;20038;-80
2022/10/25 09:10:50;;;;;;;28.98;11.73;;;;;;;;;;5081983;28;20044;-79
2022/10/25 09:13:41;;;;;;;29.70;9.75;;;;;;;;;;5075668;28;20052;-81
2022/10/25 09:16:51;;;;;;;28.77;10.05;;;;;;;;;;5075084;28;20040;-81
2022/10/25 09:20:02;;;;;;;33.28;10.98;;;;;;;;;;5082255;28;20045;-79
2022/10/25 09:22:53;;;;;;;22.00;9.43;;;;;;;;;;5082055;28;20036;-82
2022/10/25 09:25:55;;;;;;;28.05;9.27;;;;;;;;;;5075743;28;20036;-80
2022/10/25 09:28:47;;;;;;;22.65;9.43;;;;;;;;;;5075433;28;20052;-79
2022/10/25 09:31:38;;;;;;;23.73;8.05;;;;;;;;;;5074641;28;20041;-78
2022/10/25 09:34:24;;;;;;;27.70;8.18;;;;;;;;;;5074979;28;20036;-79
2022/10/25 09:37:22;;;;;;;22.25;8.75;;;;;;;;;;5081084;28;20036;-81
2022/10/25 09:40:20;;;;;;;27.45;7.88;;;;;;;;;;5074920;28;20048;-80
2022/10/25 09:43:16;;;;;;;27.25;8.40;;;;;;;;;;5081784;28;20379;-81
2022/10/25 09:46:07;;;;;;;33.45;8.80;;;;;;;;;;5080842;28;20352;-81
2022/10/25 09:49:09;;;;;;;28.20;8.82;;;;;;;;;;5086173;28;20391;-81
2022/10/25 09:52:03;;;;;;;32.63;9.95;;;;;;;;;;5074516;28;20040;-81
2022/10/25 09:55:05;;;;;;;32.38;9.65;;;;;;;;;;5074737;28;20040;-81
2022/10/25 09:57:50;;;;;;;33.65;10.52;;;;;;;;;;5073503;28;20037;-80
2022/10/25 10:00:39;;;;;;;39.83;11.52;;;;;;;;;;5081083;28;20049;-80
2022/10/25 10:03:34;;;;;;;23.13;8.50;;;;;;;;;;5074525;28;20040;-79
2022/10/25 10:06:24;;;;;;;23.85;7.85;;;;;;;;;;5080400;28;20052;-81
2022/10/25 10:09:13;;;;;;;19.80;7.03;;;;;;;;;;5080454;28;20379;-79
2022/10/25 10:11:59;;;;;;;26.15;8.40;;;;;;;;;;5080073;28;20052;-80
2022/10/25 10:15:03;;;;;;;21.55;7.50;;;;;;;;;;5080727;28;20467;-80
2022/10/25 10:18:23;;;;;;;37.00;7.18;;;;;;;;;;5074221;28;20206;-79
2022/10/25 10:21:18;;;;;;;29.35;7.55;;;;;;;;;;5080736;28;20048;-80
2022/10/25 10:24:04;;;;;;;25.05;7.28;;;;;;;;;;5080868;28;20040;-80
2022/10/25 10:26:54;;;;;;;28.23;7.95;;;;;;;;;;5080418;28;20044;-79
2022/10/25 10:29:56;;;;;;;24.27;9.50;;;;;;;;;;5080652;28;20041;-79
2022/10/25 10:32:42;;;;;;;21.77;9.48;;;;;;;;;;5079505;28;20045;-81
2022/10/25 10:35:30;;;;;;;26.73;9.27;;;;;;;;;;5074537;28;20479;-79
2022/10/25 10:38:27;;;;;;;22.77;8.82;;;;;;;;;;5080869;28;20041;-79
2022/10/25 10:41:22;;;;;;;24.27;8.55;;;;;;;;;;5080331;28;20387;-82
2022/10/25 10:44:12;;;;;;;26.35;9.27;;;;;;;;;;5081033;28;20044;-83
2022/10/25 10:46:59;;;;;;;32.72;9.60;;;;;;;;;;5073872;28;20044;-80
2022/10/25 10:49:45;;;;;;;29.77;9.00;;;;;;;;;;5073891;28;20048;-81
2022/10/25 10:52:41;;;;;;;33.45;9.73;;;;;;;;;;5073829;28;20044;-79
2022/10/25 10:55:51;;;;;;;24.77;9.70;;;;;;;;;;5079970;28;20044;-81
2022/10/25 10:58:38;;;;;;;27.83;9.88;;;;;;;;;;5080039;28;20479;-78
2022/10/25 11:01:32;;;;;;;24.60;9.32;;;;;;;;;;5079391;28;20044;-78
2022/10/25 11:04:17;;;;;;;32.15;10.38;;;;;;;;;;5080699;28;20036;-81
2022/10/25 11:07:17;;;;;;;25.98;9.32;;;;;;;;;;5082363;28;20048;-81
2022/10/25 11:10:32;;;;;;;36.20;9.90;;;;;;;;;;5072861;28;20468;-79
2022/10/25 11:13:19;;;;;;;27.90;10.68;;;;;;;;;;5080661;28;20044;-80
2022/10/25 11:16:29;;;;;;;37.03;11.65;;;;;;;;;;5082526;28;20487;-81
2022/10/25 11:19:26;;;;;;;30.48;10.77;;;;;;;;;;5079957;28;20048;-81
2022/10/25 11:22:37;;;;;;;54.28;18.20;;;;;;;;;;5079957;28;20044;-81
2022/10/25 11:25:37;;;;;;;41.47;15.82;;;;;;;;;;5077859;28;20394;-81
2022/10/25 11:28:31;;;;;;;35.72;13.88;;;;;;;;;;5076328;28;20044;-81
2022/10/25 11:32:09;;;;;;;46.65;15.48;;;;;;;;;;5083968;28;20052;-82
2022/10/25 11:35:05;;;;;;;50.25;14.45;;;;;;;;;;5052518;28;20048;-82
2022/10/25 11:38:03;;;;;;;24.17;8.18;;;;;;;;;;5083418;28;20463;-80
2022/10/25 11:41:02;;;;;;;20.60;7.75;;;;;;;;;;5083887;28;20495;-78
2022/10/25 11:44:02;;;;;;;29.73;9.13;;;;;;;;;;5076747;28;20040;-80
2022/10/25 11:46:48;;;;;;;23.67;7.57;;;;;;;;;;5083023;28;20475;-81
2022/10/25 11:49:55;;;;;;;33.83;12.23;;;;;;;;;;5081927;28;20454;-80
2022/10/25 11:53:12;;;;;;;23.17;8.55;;;;;;;;;;5077289;28;20037;-79
2022/10/25 11:56:20;;;;;;;24.30;7.68;;;;;;;;;;5083354;28;20048;-81
2022/10/25 11:59:15;;;;;;;26.42;8.10;;;;;;;;;;5078264;28;20037;-80
2022/10/25 12:02:01;;;;;;;;;;;;;;;;;;5083459;28;20052;-78
2022/10/25 12:05:27;;;;;;;27.58;8.10;;;;;;;;;;5082748;28;19908;-81
2022/10/25 12:08:29;;;;;;;31.67;9.73;;;;;;;;;;5049448;28;20383;-81
2022/10/25 12:11:21;;;;;;;23.52;9.32;;;;;;;;;;5076858;28;20474;-80
2022/10/25 12:14:11;;;;;;;20.08;9.13;;;;;;;;;;5075243;28;20040;-82
2022/10/25 12:17:00;;;;;;;30.55;9.45;;;;;;;;;;5084423;28;20383;-81
2022/10/25 12:19:49;;;;;;;31.48;9.65;;;;;;;;;;5082915;28;20044;-80
2022/10/25 12:22:44;;;;;;;23.48;11.25;;;;;;;;;;5076331;28;20048;-81
2022/10/25 12:25:49;;;;;;;25.95;8.75;;;;;;;;;;5075034;28;20383;-80
2022/10/25 12:28:44;;;;;;;30.63;9.13;;;;;;;;;;5083083;28;20048;-80
2022/10/25 12:32:02;;;;;;;22.65;9.30;;;;;;;;;;5083261;28;20052;-82
2022/10/25 12:34:53;;;;;;;25.77;8.98;;;;;;;;;;5081254;28;20041;-80
2022/10/25 12:37:44;;;;;;;22.60;9.02;;;;;;;;;;5082968;28;20040;-80
2022/10/25 12:40:35;;;;;;;25.50;8.27;;;;;;;;;;5075569;28;20040;-80
2022/10/25 12:43:32;;;;;;;27.70;10.20;;;;;;;;;;5083084;28;20037;-80
2022/10/25 12:46:30;;;;;;;28.85;9.70;;;;;;;;;;5075748;28;20037;-79
2022/10/25 12:49:51;;;;;;;23.98;8.73;;;;;;;;;;5082351;28;20044;-80
2022/10/25 12:52:42;;;;;;;20.70;8.05;;;;;;;;;;5082908;28;20044;-81
2022/10/25 12:55:33;;;;;;;25.88;8.93;;;;;;;;;;5082370;28;20048;-79
2022/10/25 12:58:45;;;;;;;29.88;9.80;;;;;;;;;;5075629;28;20403;-80
2022/10/25 13:01:32;;;;;;;24.25;9.60;;;;;;;;;;5075535;28;20033;-80
2022/10/25 13:04:31;;;;;;;27.35;8.05;;;;;;;;;;5075465;28;20037;-81
2022/10/25 13:07:18;;;;;;;25.15;8.00;;;;;;;;;;5082120;28;20479;-79
2022/10/25 13:10:16;;;;;;;16.92;8.02;;;;;;;;;;5081122;28;20383;-80
2022/10/25 13:13:05;;;;;;;20.27;8.32;;;;;;;;;;5082071;28;20040;-81
2022/10/25 13:15:55;;;;;;;22.30;8.85;;;;;;;;;;5081730;28;20040;-81
2022/10/25 13:18:46;;;;;;;27.92;8.50;;;;;;;;;;5075161;28;20041;-81
2022/10/25 13:21:52;;;;;;;27.27;9.05;;;;;;;;;;5081684;28;20036;-80
2022/10/25 13:24:39;;;;;;;22.45;8.70;;;;;;;;;;5082020;28;20040;-81
2022/10/25 13:27:29;;;;;;;22.65;8.98;;;;;;;;;;5080871;28;20435;-82
2022/10/25 13:30:17;;;;;;;21.60;8.63;;;;;;;;;;5081421;28;20032;-81
2022/10/25 13:33:22;;;;;;;22.85;8.45;;;;;;;;;;5081991;28;20385;-81
2022/10/25 13:36:08;;;;;;;28.77;9.82;;;;;;;;;;5081659;28;20411;-80
2022/10/25 13:39:04;;;;;;;30.52;10.68;;;;;;;;;;5081361;28;20045;-81
2022/10/25 13:41:49;;;;;;;42.33;15.48;;;;;;;;;;5075388;28;20045;-80
2022/10/25 13:44:38;;;;;;;43.00;18.77;;;;;;;;;;5082183;28;20036;-81
2022/10/25 13:47:39;;;;;;;62.13;31.90;;;;;;;;;;5084006;28;20044;-80
2022/10/25 13:50:34;;;;;;;97.93;48.67;;;;;;;;;;5077992;28;20376;-81
2022/10/25 13:53:32;;;;;;;25.48;9.68;;;;;;;;;;5081257;28;20048;-82
2022/10/25 13:56:33;;;;;;;26.70;9.77;;;;;;;;;;5074103;28;20152;-81
2022/10/25 13:59:44;;;;;;;19.35;8.23;;;;;;;;;;5081572;28;20479;-82
2022/10/25 14:02:30;;;;;;;18.35;8.75;;;;;;;;;;5081846;28;20040;-81
2022/10/25 14:05:55;;;;;;;19.23;8.75;;;;;;;;;;5073983;28;20040;-80
2022/10/25 14:08:48;;;;;;;17.30;7.93;;;;;;;;;;5081238;28;20052;-81
2022/10/25 14:11:44;;;;;;;19.80;7.50;;;;;;;;;;5085238;28;20048;-81
2022/10/25 14:14:48;;;;;;;19.95;7.53;;;;;;;;;;5074924;28;20471;-81
2022/10/25 14:17:42;;;;;;;29.35;9.50;;;;;;;;;;5080711;28;20037;-79
2022/10/25 14:20:30;;;;;;;31.13;9.95;;;;;;;;;;5073976;28;20036;-80
2022/10/25 14:23:20;;;;;;;32.83;12.90;;;;;;;;;;5074116;28;20052;-82
2022/10/25 14:26:13;;;;;;;32.65;13.80;;;;;;;;;;5080613;28;20379;-82
2022/10/25 14:29:20;;;;;;;35.83;13.63;;;;;;;;;;5081015;28;20048;-81
2022/10/25 14:32:12;;;;;;;28.27;12.95;;;;;;;;;;5080328;28;20041;-81
2022/10/25 14:34:58;;;;;;;30.88;9.90;;;;;;;;;;5079734;28;20387;-81
2022/10/25 14:37:43;;;;;;;15.35;7.53;;;;;;;;;;5073868;28;20036;-81
2022/10/25 14:40:30;;;;;;;22.95;7.38;;;;;;;;;;5074037;28;20471;-82
2022/10/25 14:43:31;;;;;;;23.15;6.90;;;;;;;;;;5073799;28;20379;-81
2022/10/25 14:46:18;;;;;;;21.95;7.25;;;;;;;;;;5073499;28;20029;-80
2022/10/25 14:49:08;;;;;;;21.48;9.05;;;;;;;;;;5080510;28;20044;-81
2022/10/25 14:51:58;;;;;;;16.85;8.68;;;;;;;;;;5080624;28;20459;-79
2022/10/25 14:54:46;;;;;;;24.02;9.60;;;;;;;;;;5084468;28;20045;-81
2022/10/25 14:57:33;;;;;;;27.33;9.73;;;;;;;;;;5073326;28;20040;-83
2022/10/25 15:00:21;;;;;;;31.35;13.73;;;;;;;;;;5079945;28;20348;-81
2022/10/25 15:03:14;;;;;;;53.72;24.85;;;;;;;;;;5080399;28;20044;-78
2022/10/25 15:06:00;;;;;;;47.53;18.83;;;;;;;;;;5073429;28;20036;-80
2022/10/25 15:08:45;;;;;;;40.72;16.67;;;;;;;;;;5079075;28;20052;-80
2022/10/25 15:11:31;;;;;;;40.30;16.27;;;;;;;;;;5079212;28;20041;-82
2022/10/25 15:14:20;;;;;;;36.10;17.48;;;;;;;;;;5079609;28;20040;-80
2022/10/25 15:17:32;;;;;;;39.17;17.13;;;;;;;;;;5080027;28;20044;-79
2022/10/25 15:20:18;;;;;;;39.40;16.25;;;;;;;;;;5070992;28;20044;-79
2022/10/25 15:23:13;;;;;;;36.30;16.77;;;;;;;;;;5078192;28;20037;-81
2022/10/25 15:26:18;;;;;;;;;;;;;;;;;;5071932;28;20383;-81
2022/10/25 15:29:02;;;;;;;38.67;18.85;;;;;;;;;;5078822;28;19912;-80
2022/10/25 15:31:48;;;;;;;39.03;18.10;;;;;;;;;;5079459;28;20387;-80
2022/10/25 15:34:34;;;;;;;39.38;18.45;;;;;;;;;;5079652;28;20041;-79
2022/10/25 15:37:21;;;;;;;47.50;21.98;;;;;;;;;;5080998;28;20044;-79
2022/10/25 15:40:14;;;;;;;53.50;26.35;;;;;;;;;;5081913;28;20044;-80
2022/10/25 15:42:59;;;;;;;61.70;28.20;;;;;;;;;;5073126;28;20375;-80
2022/10/25 15:45:45;;;;;;;75.07;37.33;;;;;;;;;;5073541;28;20036;-80
2022/10/25 15:48:31;;;;;;;79.90;35.60;;;;;;;;;;5073112;28;20056;-79
2022/10/25 15:51:16;;;;;;;101.25;43.92;;;;;;;;;;5073768;28;20048;-81
2022/10/25 15:54:02;;;;;;;116.13;54.15;;;;;;;;;;5065330;28;20037;-80
2022/10/25 15:56:48;;;;;;;132.48;60.03;;;;;;;;;;5069923;28;20044;-80
2022/10/25 15:59:33;;;;;;;95.63;48.20;;;;;;;;;;5066959;28;20357;-79
2022/10/25 16:02:22;;;;;;;90.55;39.00;;;;;;;;;;5079567;28;20375;-82
2022/10/25 16:05:18;;;;;;;86.72;39.67;;;;;;;;;;5072900;28;20045;-79
2022/10/25 16:08:04;;;;;;;93.47;42.38;;;;;;;;;;5087030;28;20044;-80
2022/10/25 16:10:50;;;;;;;129.27;71.13;;;;;;;;;;5074336;28;20036;-80
2022/10/25 16:13:37;;;;;;;117.97;58.08;;;;;;;;;;5082433;28;20048;-81
2022/10/25 16:16:26;;;;;;;124.13;59.10;;;;;;;;;;5076154;28;20032;-79
2022/10/25 16:19:14;;;;;;;126.72;58.92;;;;;;;;;;5074301;28;20036;-80
2022/10/25 16:22:00;;;;;;;201.48;93.45;;;;;;;;;;5089312;28;20048;-80
2022/10/25 16:24:45;;;;;;;166.60;72.63;;;;;;;;;;5082167;28;20037;-80
2022/10/25 16:27:31;;;;;;;165.88;73.20;;;;;;;;;;5074208;28;20464;-79
2022/10/25 16:30:19;;;;;;;169.13;77.35;;;;;;;;;;5082277;28;20044;-79
2022/10/25 16:33:05;;;;;;;156.40;73.20;;;;;;;;;;5076216;28;20036;-81
2022/10/25 16:35:50;;;;;;;156.63;80.38;;;;;;;;;;5067021;28;20040;-82
2022/10/25 16:38:36;;;;;;;180.48;81.43;;;;;;;;;;5081700;28;20040;-80
2022/10/25 16:41:27;;;;;;;172.30;87.40;;;;;;;;;;5056138;28;20045;-80
2022/10/25 16:44:15;;;;;;;161.15;76.72;;;;;;;;;;5066423;28;20092;-80